createdAt,value
2016-09-28T00:00:03.383Z,3.93
2016-09-28T00:01:03.394Z,3.92
2016-09-28T00:02:03.344Z,3.92
2016-09-28T00:03:03.335Z,3.86
2016-09-28T00:04:03.353Z,3.86
2016-09-28T00:05:03.308Z,3.98
2016-09-28T00:06:03.339Z,4.11
2016-09-28T00:07:03.295Z,4.04
2016-09-28T00:08:03.269Z,4.1
2016-09-28T00:09:03.268Z,4.14
2016-09-28T00:10:03.254Z,4.11
2016-09-28T00:11:03.261Z,4.1
2016-09-28T00:12:03.241Z,4.16
2016-09-28T00:13:03.218Z,4.21
2016-09-28T00:14:03.228Z,4.21
2016-09-28T00:15:03.219Z,4.13
2016-09-28T00:16:03.181Z,4.13
2016-09-28T00:17:03.200Z,4.17
2016-09-28T00:18:03.164Z,4.1
2016-09-28T00:19:03.145Z,4.02
2016-09-28T00:20:03.162Z,4.04
2016-09-28T00:21:03.116Z,3.95
2016-09-28T00:22:03.133Z,3.95
2016-09-28T00:23:03.112Z,3.86
2016-09-28T00:24:03.092Z,3.81
2016-09-28T00:25:03.095Z,3.81
2016-09-28T00:26:03.074Z,3.93
2016-09-28T00:27:03.076Z,4
2016-09-28T00:28:03.053Z,3.95
2016-09-28T00:29:03.047Z,3.95
2016-09-28T00:30:03.028Z,3.88
2016-09-28T00:31:03.030Z,3.86
2016-09-28T00:32:03.001Z,3.86
2016-09-28T00:33:02.970Z,3.84
2016-09-28T00:34:02.984Z,3.77
2016-09-28T00:35:02.977Z,3.82
2016-09-28T00:36:02.957Z,3.86
2016-09-28T00:37:02.939Z,3.84
2016-09-28T00:38:02.947Z,3.88
2016-09-28T00:39:02.915Z,3.89
2016-09-28T00:40:02.907Z,3.84
2016-09-28T00:41:02.883Z,3.82
2016-09-28T00:42:02.883Z,3.74
2016-09-28T00:43:03.173Z,3.7
2016-09-28T00:44:02.856Z,3.7
2016-09-28T00:45:02.853Z,3.68
2016-09-28T00:46:02.835Z,3.7
2016-09-28T00:47:02.822Z,3.77
2016-09-28T00:48:02.822Z,3.75
2016-09-28T00:49:02.778Z,3.81
2016-09-28T00:50:02.773Z,3.78
2016-09-28T00:51:02.767Z,3.84
2016-09-28T00:52:02.793Z,3.82
2016-09-28T00:53:02.765Z,3.9
2016-09-28T00:54:02.725Z,3.9
2016-09-28T00:55:02.707Z,3.89
2016-09-28T00:56:02.706Z,3.92
2016-09-28T00:57:02.704Z,3.9
2016-09-28T00:58:02.696Z,3.95
2016-09-28T00:59:02.662Z,3.95
2016-09-28T01:00:02.656Z,3.95
2016-09-28T01:01:02.647Z,3.9
2016-09-28T01:02:02.642Z,3.99
2016-09-28T01:03:02.613Z,3.99
2016-09-28T01:04:02.618Z,3.95
2016-09-28T01:05:02.636Z,3.95
2016-09-28T01:06:02.587Z,3.92
2016-09-28T01:07:02.579Z,3.93
2016-09-28T01:08:02.551Z,3.9
2016-09-28T01:09:02.556Z,3.8
2016-09-28T01:10:02.552Z,3.82
2016-09-28T01:11:02.516Z,3.95
2016-09-28T01:12:02.512Z,3.98
2016-09-28T01:13:02.504Z,3.98
2016-09-28T01:14:02.498Z,4.11
2016-09-28T01:15:02.486Z,4.07
2016-09-28T01:16:02.454Z,4.14
2016-09-28T01:17:02.461Z,4.2
2016-09-28T01:18:02.432Z,4.18
2016-09-28T01:19:02.437Z,4.21
2016-09-28T01:20:02.432Z,4.18
2016-09-28T01:21:02.393Z,4.18
2016-09-28T01:22:02.413Z,4.17
2016-09-28T01:23:02.386Z,4.16
2016-09-28T01:24:02.392Z,4.17
2016-09-28T01:25:02.359Z,4.16
2016-09-28T01:26:02.349Z,4.14
2016-09-28T01:27:02.333Z,4.18
2016-09-28T01:28:02.330Z,4.17
2016-09-28T01:29:02.327Z,4.14
2016-09-28T01:30:02.297Z,4.16
2016-09-28T01:31:02.305Z,4.18
2016-09-28T01:32:02.281Z,4.18
2016-09-28T01:33:02.263Z,4.17
2016-09-28T01:34:02.245Z,4.18
2016-09-28T01:35:02.236Z,4.07
2016-09-28T01:36:02.225Z,4.21
2016-09-28T01:37:02.210Z,4.13
2016-09-28T01:38:02.195Z,4.21
2016-09-28T01:39:02.170Z,4.21
2016-09-28T01:40:02.171Z,4.13
2016-09-28T01:41:02.150Z,4.08
2016-09-28T01:42:02.146Z,3.96
2016-09-28T01:43:02.143Z,3.99
2016-09-28T01:44:02.123Z,3.98
2016-09-28T01:45:02.131Z,3.98
2016-09-28T01:46:02.084Z,4.02
2016-09-28T01:47:02.065Z,3.98
2016-09-28T01:48:02.073Z,4.07
2016-09-28T01:49:02.065Z,4.1
2016-09-28T01:50:02.047Z,4.13
2016-09-28T01:51:02.041Z,4.2
2016-09-28T01:52:02.018Z,4.18
2016-09-28T01:53:01.999Z,4.11
2016-09-28T01:54:02.001Z,4.14
2016-09-28T01:55:01.995Z,4.16
2016-09-28T01:56:01.961Z,4.21
2016-09-28T01:57:01.953Z,4.14
2016-09-28T01:58:01.936Z,4.21
2016-09-28T01:59:01.914Z,4.18
2016-09-28T02:00:01.921Z,4.18
2016-09-28T02:01:01.923Z,4.07
2016-09-28T02:02:01.882Z,4.11
2016-09-28T02:03:02.079Z,4.07
2016-09-28T02:04:01.878Z,4.02
2016-09-28T02:05:01.843Z,4
2016-09-28T02:06:01.845Z,3.92
2016-09-28T02:07:01.842Z,4
2016-09-28T02:08:01.819Z,4
2016-09-28T02:09:01.802Z,3.89
2016-09-28T02:10:01.783Z,4.02
2016-09-28T02:11:01.774Z,4
2016-09-28T02:12:01.746Z,3.98
2016-09-28T02:13:01.721Z,3.96
2016-09-28T02:14:01.720Z,4
2016-09-28T02:15:01.731Z,3.98
2016-09-28T02:16:01.702Z,3.98
2016-09-28T02:17:01.680Z,3.95
2016-09-28T02:18:01.668Z,4.02
2016-09-28T02:19:01.652Z,4.11
2016-09-28T02:20:01.655Z,4.11
2016-09-28T02:21:01.647Z,4.08
2016-09-28T02:22:01.642Z,3.98
2016-09-28T02:23:01.610Z,3.93
2016-09-28T02:24:01.580Z,3.8
2016-09-28T02:25:01.594Z,3.77
2016-09-28T02:26:01.574Z,3.77
2016-09-28T02:27:01.574Z,3.8
2016-09-28T02:28:01.554Z,3.9
2016-09-28T02:29:01.527Z,3.98
2016-09-28T02:30:01.502Z,3.95
2016-09-28T02:31:01.503Z,3.98
2016-09-28T02:32:01.494Z,3.95
2016-09-28T02:33:16.374Z,3.98
2016-09-28T02:34:01.668Z,4.02
2016-09-28T02:35:01.453Z,4
2016-09-28T02:36:01.440Z,3.99
2016-09-28T02:37:01.437Z,3.96
2016-09-28T02:38:01.425Z,4.02
2016-09-28T02:39:01.422Z,3.98
2016-09-28T02:40:01.386Z,4.04
2016-09-28T02:41:01.403Z,3.99
2016-09-28T02:42:01.355Z,3.99
2016-09-28T02:43:01.355Z,4.07
2016-09-28T02:44:01.314Z,4.04
2016-09-28T02:45:01.315Z,4.1
2016-09-28T02:46:01.294Z,4.11
2016-09-28T02:47:01.277Z,4.06
2016-09-28T02:48:01.296Z,4.11
2016-09-28T02:49:01.248Z,4.02
2016-09-28T02:50:01.247Z,4.04
2016-09-28T02:51:01.245Z,3.93
2016-09-28T02:52:01.224Z,3.93
2016-09-28T02:53:01.218Z,3.95
2016-09-28T02:54:01.218Z,3.89
2016-09-28T02:55:01.188Z,3.9
2016-09-28T02:56:01.178Z,3.98
2016-09-28T02:57:01.168Z,3.95
2016-09-28T02:58:01.134Z,4.02
2016-09-28T02:59:01.113Z,4
2016-09-28T03:00:01.127Z,3.99
2016-09-28T03:01:01.128Z,4
2016-09-28T03:02:01.079Z,3.99
2016-09-28T03:03:01.084Z,4.1
2016-09-28T03:04:01.272Z,4.07
2016-09-28T03:05:01.250Z,4.06
2016-09-28T03:06:01.036Z,3.98
2016-09-28T03:07:01.041Z,4
2016-09-28T03:08:01.344Z,4.04
2016-09-28T03:09:01.010Z,4.04
2016-09-28T03:10:00.994Z,3.99
2016-09-28T03:11:00.973Z,4
2016-09-28T03:12:00.957Z,4.11
2016-09-28T03:13:00.953Z,4.07
2016-09-28T03:14:00.944Z,4.02
2016-09-28T03:15:00.944Z,4.08
2016-09-28T03:16:00.908Z,4.11
2016-09-28T03:17:00.894Z,4
2016-09-28T03:18:00.865Z,4.07
2016-09-28T03:19:00.867Z,4.08
2016-09-28T03:20:00.848Z,4.1
2016-09-28T03:21:00.840Z,4
2016-09-28T03:22:00.829Z,4
2016-09-28T03:23:00.821Z,4.11
2016-09-28T03:24:00.823Z,4.1
2016-09-28T03:25:00.789Z,4.07
2016-09-28T03:27:00.783Z,4
2016-09-28T03:28:00.771Z,3.98
2016-09-28T03:29:00.727Z,4.02
2016-09-28T03:30:00.732Z,3.96
2016-09-28T03:31:00.700Z,4
2016-09-28T03:32:00.701Z,3.98
2016-09-28T03:33:00.705Z,3.99
2016-09-28T03:34:00.696Z,3.96
2016-09-28T03:35:00.838Z,3.92
2016-09-28T03:36:00.849Z,3.98
2016-09-28T03:37:00.630Z,3.96
2016-09-28T03:38:00.615Z,3.98
2016-09-28T03:39:00.601Z,4.1
2016-09-28T03:40:00.577Z,4.06
2016-09-28T03:41:00.582Z,3.98
2016-09-28T03:42:00.564Z,3.98
2016-09-28T03:43:00.543Z,4.02
2016-09-28T03:44:00.536Z,3.99
2016-09-28T03:45:00.543Z,3.9
2016-09-28T03:46:00.494Z,3.89
2016-09-28T03:47:00.494Z,3.96
2016-09-28T03:48:00.504Z,3.98
2016-09-28T03:49:00.474Z,3.99
2016-09-28T03:50:00.448Z,3.92
2016-09-28T03:51:00.441Z,4.08
2016-09-28T03:52:00.440Z,4.06
2016-09-28T03:53:00.421Z,4.04
2016-09-28T03:54:00.408Z,4.02
2016-09-28T03:55:00.392Z,4.04
2016-09-28T03:56:00.381Z,4.11
2016-09-28T03:57:00.359Z,4.13
2016-09-28T03:58:00.369Z,4.04
2016-09-28T03:59:00.334Z,4.04
2016-09-28T04:00:00.331Z,3.99
2016-09-28T04:01:00.309Z,4.06
2016-09-28T04:02:00.293Z,3.9
2016-09-28T04:03:00.275Z,3.96
2016-09-28T04:04:00.274Z,3.93
2016-09-28T04:05:00.237Z,4
2016-09-28T04:06:00.441Z,4.11
2016-09-28T04:07:00.435Z,4.06
2016-09-28T04:08:00.213Z,4
2016-09-28T04:09:00.219Z,4.11
2016-09-28T04:10:00.187Z,4.18
2016-09-28T04:11:00.167Z,4.17
2016-09-28T04:12:00.145Z,4.21
2016-09-28T04:13:00.159Z,4.21
2016-09-28T04:14:00.155Z,4.14
2016-09-28T04:15:00.103Z,4.2
2016-09-28T04:16:00.111Z,4.13
2016-09-28T04:17:00.096Z,4.28
2016-09-28T04:18:00.066Z,4.35
2016-09-28T04:19:00.050Z,4.43
2016-09-28T04:20:00.059Z,4.39
2016-09-28T04:21:00.040Z,4.49
2016-09-28T04:22:00.033Z,4.53
2016-09-28T04:23:00.034Z,4.61
2016-09-28T04:23:59.986Z,4.64
2016-09-28T04:24:59.992Z,4.65
2016-09-28T04:25:59.980Z,4.57
2016-09-28T04:26:59.987Z,4.53
2016-09-28T04:27:59.956Z,4.59
2016-09-28T04:28:59.947Z,4.57
2016-09-28T04:29:59.920Z,4.5
2016-09-28T04:30:59.913Z,4.47
2016-09-28T04:31:59.888Z,4.49
2016-09-28T04:32:59.895Z,4.47
2016-09-28T04:33:59.882Z,4.39
2016-09-28T04:34:59.855Z,4.28
2016-09-28T04:35:59.849Z,4.32
2016-09-28T04:36:59.829Z,4.24
2016-09-28T04:37:59.814Z,4.18
2016-09-28T04:38:59.811Z,4.07
2016-09-28T04:39:59.797Z,4.1
2016-09-28T04:40:59.790Z,4.1
2016-09-28T04:41:59.777Z,4.11
2016-09-28T04:42:59.736Z,4.02
2016-09-28T04:43:59.729Z,3.95
2016-09-28T04:44:59.730Z,4
2016-09-28T04:45:59.717Z,4
2016-09-28T04:46:59.707Z,4.04
2016-09-28T04:47:59.690Z,4.08
2016-09-28T04:48:59.697Z,4.04
2016-09-28T04:49:59.658Z,3.96
2016-09-28T04:50:59.666Z,3.98
2016-09-28T04:51:59.643Z,3.96
2016-09-28T04:52:59.622Z,4
2016-09-28T04:53:59.604Z,4.04
2016-09-28T04:54:59.579Z,3.96
2016-09-28T04:55:59.580Z,3.92
2016-09-28T04:56:59.551Z,3.93
2016-09-28T04:57:59.560Z,3.93
2016-09-28T04:58:59.541Z,3.88
2016-09-28T04:59:59.517Z,3.86
2016-09-28T05:00:59.534Z,3.88
2016-09-28T05:01:59.516Z,3.82
2016-09-28T05:02:59.486Z,3.82
2016-09-28T05:03:59.462Z,3.8
2016-09-28T05:04:59.458Z,3.78
2016-09-28T05:05:59.450Z,3.78
2016-09-28T05:06:59.415Z,3.77
2016-09-28T05:07:59.437Z,3.82
2016-09-28T05:08:59.392Z,3.81
2016-09-28T05:09:59.396Z,3.68
2016-09-28T05:10:59.378Z,3.68
2016-09-28T05:11:59.384Z,3.7
2016-09-28T05:12:59.362Z,3.68
2016-09-28T05:13:59.348Z,3.75
2016-09-28T05:14:59.348Z,3.86
2016-09-28T05:15:59.342Z,3.82
2016-09-28T05:16:59.297Z,3.89
2016-09-28T05:17:59.286Z,3.82
2016-09-28T05:18:59.290Z,3.86
2016-09-28T05:19:59.260Z,3.88
2016-09-28T05:20:59.232Z,3.9
2016-09-28T05:21:59.216Z,3.96
2016-09-28T05:22:59.225Z,3.96
2016-09-28T05:23:59.212Z,3.93
2016-09-28T05:24:59.205Z,3.93
2016-09-28T05:25:59.164Z,3.9
2016-09-28T05:26:59.165Z,3.92
2016-09-28T05:27:59.440Z,3.99
2016-09-28T05:28:59.126Z,3.96
2016-09-28T05:29:59.127Z,4.08
2016-09-28T05:30:59.134Z,4.16
2016-09-28T05:31:59.416Z,4.21
2016-09-28T05:32:59.101Z,4.18
2016-09-28T05:33:59.095Z,4.18
2016-09-28T05:34:59.070Z,4.24
2016-09-28T05:35:59.045Z,4.21
2016-09-28T05:36:59.042Z,4.26
2016-09-28T05:37:59.030Z,4.28
2016-09-28T05:38:59.029Z,4.26
2016-09-28T05:39:58.986Z,4.29
2016-09-28T05:40:58.990Z,4.35
2016-09-28T05:41:58.971Z,4.36
2016-09-28T05:42:58.973Z,4.47
2016-09-28T05:43:58.957Z,4.56
2016-09-28T05:44:58.930Z,4.5
2016-09-28T05:45:58.921Z,4.47
2016-09-28T05:46:58.903Z,4.53
2016-09-28T05:47:58.882Z,4.53
2016-09-28T05:48:58.887Z,4.65
2016-09-28T05:49:58.868Z,4.68
2016-09-28T05:50:58.863Z,4.65
2016-09-28T05:51:58.838Z,4.71
2016-09-28T05:52:58.831Z,4.83
2016-09-28T05:53:58.805Z,4.84
2016-09-28T05:54:58.787Z,4.88
2016-09-28T05:55:58.782Z,4.84
2016-09-28T05:56:58.791Z,4.8
2016-09-28T05:57:58.778Z,4.83
2016-09-28T05:58:58.729Z,4.75
2016-09-28T05:59:58.751Z,4.84
2016-09-28T06:00:58.739Z,4.88
2016-09-28T06:01:58.711Z,4.93
2016-09-28T06:02:58.703Z,5.04
2016-09-28T06:03:58.702Z,5.04
2016-09-28T06:04:58.680Z,4.99
2016-09-28T06:05:58.662Z,5.02
2016-09-28T06:06:58.638Z,4.88
2016-09-28T06:07:58.618Z,4.77
2016-09-28T06:08:58.608Z,4.8
2016-09-28T06:09:58.606Z,4.84
2016-09-28T06:10:58.574Z,4.86
2016-09-28T06:11:58.559Z,4.96
2016-09-28T06:12:58.546Z,4.87
2016-09-28T06:13:58.545Z,4.9
2016-09-28T06:14:58.540Z,4.86
2016-09-28T06:15:58.533Z,4.91
2016-09-28T06:16:58.507Z,4.99
2016-09-28T06:17:58.508Z,5.12
2016-09-28T06:18:58.501Z,5.24
2016-09-28T06:19:58.487Z,5.44
2016-09-28T06:20:58.440Z,5.4
2016-09-28T06:21:58.461Z,5.48
2016-09-28T06:22:58.429Z,5.6
2016-09-28T06:23:58.435Z,5.62
2016-09-28T06:24:58.387Z,5.69
2016-09-28T06:25:58.393Z,5.67
2016-09-28T06:26:58.390Z,5.7
2016-09-28T06:27:58.368Z,5.65
2016-09-28T06:28:58.353Z,5.69
2016-09-28T06:29:58.320Z,5.74
2016-09-28T06:30:58.321Z,5.75
2016-09-28T06:31:58.308Z,5.74
2016-09-28T06:32:58.304Z,5.78
2016-09-28T06:33:58.275Z,5.77
2016-09-28T06:34:58.477Z,5.81
2016-09-28T06:35:58.265Z,6.01
2016-09-28T06:36:58.262Z,5.96
2016-09-28T06:37:58.215Z,6.06
2016-09-28T06:38:58.234Z,6.3
2016-09-28T06:39:58.212Z,6.45
2016-09-28T06:40:58.192Z,6.38
2016-09-28T06:41:58.187Z,6.36
2016-09-28T06:42:58.175Z,6.28
2016-09-28T06:43:58.157Z,6.2
2016-09-28T06:44:58.469Z,6.05
2016-09-28T06:45:58.131Z,6.05
2016-09-28T06:46:58.116Z,6.01
2016-09-28T06:47:58.096Z,6.14
2016-09-28T06:48:58.078Z,6.25
2016-09-28T06:49:58.077Z,6.24
2016-09-28T06:50:58.092Z,6.32
2016-09-28T06:51:58.053Z,6.05
2016-09-28T06:52:58.048Z,6.02
2016-09-28T06:53:58.044Z,6.02
2016-09-28T06:54:58.024Z,6.02
2016-09-28T06:55:58.027Z,5.96
2016-09-28T06:56:58.014Z,5.78
2016-09-28T06:57:57.975Z,6.16
2016-09-28T06:58:57.983Z,6.13
2016-09-28T06:59:57.942Z,6.1
2016-09-28T07:00:57.937Z,6.3
2016-09-28T07:01:57.940Z,6.64
2016-09-28T07:02:57.933Z,6.69
2016-09-28T07:03:57.908Z,7.05
2016-09-28T07:04:57.902Z,7.04
2016-09-28T07:05:57.870Z,6.82
2016-09-28T07:06:57.891Z,6.75
2016-09-28T07:07:57.873Z,6.65
2016-09-28T07:08:57.831Z,6.63
2016-09-28T07:09:57.835Z,6.32
2016-09-28T07:10:57.821Z,6.05
2016-09-28T07:11:57.801Z,6.08
2016-09-28T07:12:57.819Z,6.17
2016-09-28T07:13:57.792Z,6.82
2016-09-28T07:14:57.762Z,6.9
2016-09-28T07:15:57.755Z,7.16
2016-09-28T07:16:57.761Z,7.12
2016-09-28T07:17:57.751Z,7.19
2016-09-28T07:18:57.726Z,7.24
2016-09-28T07:19:57.705Z,7.54
2016-09-28T07:20:57.702Z,7.73
2016-09-28T07:21:57.691Z,8.18
2016-09-28T07:22:57.680Z,8.29
2016-09-28T07:23:57.672Z,8.18
2016-09-28T07:24:57.642Z,8
2016-09-28T07:25:57.651Z,7.7
2016-09-28T07:26:57.623Z,7.6
2016-09-28T07:27:57.625Z,7.91
2016-09-28T07:28:57.617Z,8
2016-09-28T07:29:57.616Z,8.34
2016-09-28T07:30:57.604Z,8.68
2016-09-28T07:31:57.591Z,8.86
2016-09-28T07:32:57.557Z,8.98
2016-09-28T07:33:57.561Z,8.37
2016-09-28T07:34:57.553Z,8
2016-09-28T07:35:57.537Z,8.03
2016-09-28T07:36:57.525Z,8.31
2016-09-28T07:37:57.533Z,8.27
2016-09-28T07:38:57.521Z,8.4
2016-09-28T07:39:57.519Z,8.34
2016-09-28T07:40:57.487Z,8
2016-09-28T07:41:57.464Z,8.4
2016-09-28T07:42:57.485Z,8.46
2016-09-28T07:43:57.477Z,8.37
2016-09-28T07:44:57.459Z,8.34
2016-09-28T07:45:57.457Z,8.28
2016-09-28T07:46:57.425Z,8.34
2016-09-28T07:47:57.433Z,8.42
2016-09-28T07:48:57.403Z,8.49
2016-09-28T07:49:57.378Z,8.61
2016-09-28T07:50:57.370Z,8.96
2016-09-28T07:51:57.380Z,9.22
2016-09-28T07:52:57.364Z,8.78
2016-09-28T07:53:57.361Z,8.14
2016-09-28T07:54:57.351Z,7.71
2016-09-28T07:55:57.342Z,7.84
2016-09-28T07:56:57.347Z,7.91
2016-09-28T07:57:57.313Z,8.13
2016-09-28T07:58:57.314Z,8.14
2016-09-28T07:59:57.294Z,8.45
2016-09-28T08:00:57.294Z,8.78
2016-09-28T08:01:57.263Z,9.12
2016-09-28T08:02:57.268Z,9.6
2016-09-28T08:03:57.267Z,9.12
2016-09-28T08:04:57.576Z,8.79
2016-09-28T08:05:57.239Z,7.86
2016-09-28T08:06:57.222Z,7.85
2016-09-28T08:07:57.209Z,7.52
2016-09-28T08:08:57.214Z,7.41
2016-09-28T08:09:57.187Z,7.94
2016-09-28T08:10:57.179Z,8.45
2016-09-28T08:11:57.164Z,8.46
2016-09-28T08:12:57.172Z,7.76
2016-09-28T08:13:57.135Z,7.36
2016-09-28T08:14:57.140Z,7.16
2016-09-28T08:15:57.133Z,7.29
2016-09-28T08:16:57.103Z,6.99
2016-09-28T08:17:57.121Z,6.73
2016-09-28T08:18:57.102Z,6.72
2016-09-28T08:19:57.071Z,7
2016-09-28T08:20:57.080Z,7.69
2016-09-28T08:21:57.068Z,8.4
2016-09-28T08:22:57.075Z,8.14
2016-09-28T08:23:57.055Z,8.07
2016-09-28T08:24:57.034Z,8.07
2016-09-28T08:25:57.034Z,7.92
2016-09-28T08:26:57.004Z,7.48
2016-09-28T08:27:57.010Z,7.7
2016-09-28T08:28:56.993Z,7.76
2016-09-28T08:29:56.999Z,8.02
2016-09-28T08:30:56.952Z,8.4
2016-09-28T08:31:57.014Z,8.13
2016-09-28T08:32:56.946Z,7.89
2016-09-28T08:33:56.948Z,8.12
2016-09-28T08:34:56.932Z,8.28
2016-09-28T08:35:56.913Z,8.14
2016-09-28T08:36:56.923Z,8.04
2016-09-28T08:37:56.911Z,7.71
2016-09-28T08:38:56.881Z,7.39
2016-09-28T08:39:56.863Z,7.52
2016-09-28T08:40:56.857Z,7.52
2016-09-28T08:41:56.877Z,7.94
2016-09-28T08:42:56.864Z,7.74
2016-09-28T08:43:56.834Z,7.63
2016-09-28T08:44:56.823Z,7.42
2016-09-28T08:45:57.135Z,7.6
2016-09-28T08:46:56.802Z,7.48
2016-09-28T08:47:56.778Z,6.97
2016-09-28T08:48:56.777Z,6.81
2016-09-28T08:49:56.776Z,6.75
2016-09-28T08:50:56.765Z,6.78
2016-09-28T08:51:56.747Z,6.61
2016-09-28T08:52:56.716Z,6.61
2016-09-28T08:53:56.737Z,6.73
2016-09-28T08:54:56.711Z,6.61
2016-09-28T08:55:56.696Z,6.68
2016-09-28T08:56:56.669Z,6.68
2016-09-28T08:57:56.663Z,6.72
2016-09-28T08:58:57.003Z,6.72
2016-09-28T08:59:57.012Z,6.64
2016-09-28T09:00:56.985Z,6.76
2016-09-28T09:01:56.999Z,6.69
2016-09-28T09:02:56.937Z,6.99
2016-09-28T09:03:56.629Z,6.82
2016-09-28T09:04:57.267Z,7.11
2016-09-28T09:05:56.610Z,7.41
2016-09-28T09:06:57.217Z,7.3
2016-09-28T09:07:57.246Z,6.96
2016-09-28T09:08:56.555Z,7.12
2016-09-28T09:09:56.562Z,7.37
2016-09-28T09:10:56.553Z,7.12
2016-09-28T09:11:56.531Z,6.97
2016-09-28T09:12:56.549Z,6.86
2016-09-28T09:13:56.803Z,6.87
2016-09-28T09:14:57.107Z,6.83
2016-09-28T09:15:56.467Z,7.21
2016-09-28T09:16:56.777Z,7.08
2016-09-28T09:17:56.472Z,6.93
2016-09-28T09:18:56.783Z,6.83
2016-09-28T09:19:56.735Z,6.83
2016-09-28T09:20:56.424Z,6.83
2016-09-28T09:21:56.735Z,6.55
2016-09-28T09:22:56.405Z,6.89
2016-09-28T09:23:56.417Z,7.21
2016-09-28T09:24:56.674Z,7.41
2016-09-28T09:25:56.643Z,7.29
2016-09-28T09:26:56.990Z,7.34
2016-09-28T09:27:56.638Z,7.16
2016-09-28T09:28:56.659Z,7.07
2016-09-28T09:29:56.942Z,6.76
2016-09-28T09:30:56.609Z,6.57
2016-09-28T09:31:56.906Z,6.82
2016-09-28T09:32:56.485Z,6.83
2016-09-28T09:33:56.263Z,7.27
2016-09-28T09:34:56.590Z,7.54
2016-09-28T09:35:56.590Z,7.33
2016-09-28T09:36:56.526Z,7.94
2016-09-28T09:37:56.221Z,7.92
2016-09-28T09:38:56.504Z,8.22
2016-09-28T09:39:56.791Z,8.29
2016-09-28T09:40:56.512Z,7.66
2016-09-28T09:41:56.503Z,7.76
2016-09-28T09:42:56.174Z,8.28
2016-09-28T09:43:56.158Z,8.5
2016-09-28T09:44:56.469Z,8.36
2016-09-28T09:45:56.137Z,8.13
2016-09-28T09:46:56.134Z,7.88
2016-09-28T09:47:56.432Z,7.37
2016-09-28T09:48:56.724Z,7.14
2016-09-28T09:49:56.399Z,7.24
2016-09-28T09:50:56.095Z,7.71
2016-09-28T09:51:56.082Z,7.84
2016-09-28T09:52:56.375Z,8.04
2016-09-28T09:53:56.040Z,7.82
2016-09-28T09:54:56.356Z,7.58
2016-09-28T09:55:56.011Z,7.86
2016-09-28T09:56:56.032Z,8.28
2016-09-28T09:57:56.600Z,8.39
2016-09-28T09:58:55.987Z,8.13
2016-09-28T09:59:56.313Z,7.79
2016-09-28T10:00:56.297Z,8.02
2016-09-28T10:01:56.298Z,8.22
2016-09-28T10:02:56.552Z,8.4
2016-09-28T10:03:55.931Z,8.64
2016-09-28T10:04:56.266Z,8.31
2016-09-28T10:05:56.537Z,8.61
2016-09-28T10:06:56.233Z,8.52
2016-09-28T10:07:56.499Z,8.21
2016-09-28T10:08:56.204Z,8.39
2016-09-28T10:09:56.180Z,8.82
2016-09-28T10:10:56.466Z,9.03
2016-09-28T10:11:55.851Z,9.7
2016-09-28T10:12:56.175Z,9.91
2016-09-28T10:13:55.821Z,10.38
2016-09-28T10:14:56.423Z,10.66
2016-09-28T10:15:55.808Z,10.91
2016-09-28T10:16:56.129Z,10.36
2016-09-28T10:17:56.116Z,10.51
2016-09-28T10:18:56.429Z,10.14
2016-09-28T10:19:56.396Z,9.37
2016-09-28T10:20:55.773Z,8.49
2016-09-28T10:21:55.764Z,8.31
2016-09-28T10:22:55.767Z,8.32
2016-09-28T10:23:56.046Z,8.04
2016-09-28T10:24:56.027Z,8.4
2016-09-28T10:25:55.738Z,8.6
2016-09-28T10:26:55.700Z,8.54
2016-09-28T10:27:56.005Z,8.42
2016-09-28T10:28:55.671Z,8.14
2016-09-28T10:29:56.337Z,8
2016-09-28T10:30:55.961Z,8
2016-09-28T10:31:55.653Z,8.46
2016-09-28T10:32:55.961Z,8.86
2016-09-28T10:33:56.275Z,8.97
2016-09-28T10:34:55.979Z,9.22
2016-09-28T10:35:55.622Z,9.48
2016-09-28T10:36:56.227Z,9.95
2016-09-28T10:37:55.912Z,9.78
2016-09-28T10:38:55.595Z,9.89
2016-09-28T10:39:55.613Z,10.01
2016-09-28T10:40:55.885Z,10.1
2016-09-28T10:41:55.873Z,10.28
2016-09-28T10:42:55.548Z,10.66
2016-09-28T10:43:55.507Z,11.12
2016-09-28T10:44:55.843Z,11.26
2016-09-28T10:45:55.539Z,11.24
2016-09-28T10:46:55.504Z,11.02
2016-09-28T10:47:55.864Z,11.01
2016-09-28T10:48:56.108Z,10.78
2016-09-28T10:49:55.802Z,10.7
2016-09-28T10:50:55.806Z,10.83
2016-09-28T10:51:56.078Z,10.9
2016-09-28T10:52:55.783Z,11.11
2016-09-28T10:53:55.441Z,10.58
2016-09-28T10:54:55.766Z,10.22
2016-09-28T10:55:55.749Z,9.92
2016-09-28T10:56:56.029Z,10.14
2016-09-28T10:57:55.419Z,10.54
2016-09-28T10:58:55.735Z,11.12
2016-09-28T10:59:55.721Z,11.11
2016-09-28T11:00:55.433Z,10.83
2016-09-28T11:01:55.571Z,10.65
2016-09-28T11:02:55.374Z,9.93
2016-09-28T11:03:55.968Z,9.73
2016-09-28T11:04:55.704Z,9.74
2016-09-28T11:05:55.619Z,9.34
2016-09-28T11:06:55.967Z,9.63
2016-09-28T11:07:55.648Z,9.58
2016-09-28T11:08:55.334Z,9.63
2016-09-28T11:09:55.635Z,9.63
2016-09-28T11:10:55.310Z,9.75
2016-09-28T11:11:55.295Z,9.86
2016-09-28T11:12:55.281Z,9.95
2016-09-28T11:13:55.587Z,10.22
2016-09-28T11:14:56.646Z,10.58
2016-09-28T11:15:55.545Z,10.73
2016-09-28T11:16:55.590Z,10.43
2016-09-28T11:17:55.540Z,10.28
2016-09-28T11:18:55.863Z,10.11
2016-09-28T11:19:55.205Z,10.34
2016-09-28T11:20:55.215Z,10.18
2016-09-28T11:21:55.838Z,10.17
2016-09-28T11:22:55.803Z,10.1
2016-09-28T11:23:55.198Z,10.25
2016-09-28T11:24:55.504Z,10.29
2016-09-28T11:25:55.470Z,10.01
2016-09-28T11:26:55.465Z,10.2
2016-09-28T11:27:55.434Z,10.01
2016-09-28T11:28:55.125Z,9.95
2016-09-28T11:29:55.095Z,9.99
2016-09-28T11:30:55.098Z,9.83
2016-09-28T11:31:55.088Z,9.96
2016-09-28T11:32:55.103Z,10.02
2016-09-28T11:33:55.083Z,10.16
2016-09-28T11:34:55.064Z,10.29
2016-09-28T11:35:55.066Z,10.44
2016-09-28T11:36:55.047Z,10.01
2016-09-28T11:37:55.033Z,9.7
2016-09-28T11:38:55.021Z,10.18
2016-09-28T11:39:55.017Z,9.95
2016-09-28T11:40:54.997Z,10.09
2016-09-28T11:41:55.020Z,10.24
2016-09-28T11:42:55.001Z,10.18
2016-09-28T11:43:55.016Z,10.02
2016-09-28T11:44:55.322Z,9.91
2016-09-28T11:45:54.974Z,10.02
2016-09-28T11:46:55.595Z,10.31
2016-09-28T11:47:55.290Z,10.32
2016-09-28T11:48:54.960Z,10.07
2016-09-28T11:49:55.261Z,10.16
2016-09-28T11:50:55.247Z,9.98
2016-09-28T11:51:55.224Z,9.99
2016-09-28T11:52:54.911Z,10.54
2016-09-28T11:53:55.531Z,11.16
2016-09-28T11:54:54.880Z,10.98
2016-09-28T11:55:55.304Z,11.12
2016-09-28T11:56:55.189Z,11.13
2016-09-28T11:57:54.870Z,10.43
2016-09-28T11:58:54.846Z,10.24
2016-09-28T11:59:54.845Z,9.85
2016-09-28T12:00:55.163Z,9.86
2016-09-28T12:01:55.451Z,9.48
2016-09-28T12:02:54.849Z,9.77
2016-09-28T12:03:55.464Z,10.38
2016-09-28T12:04:55.109Z,10.63
2016-09-28T12:05:54.839Z,11.26
2016-09-28T12:06:54.780Z,11.31
2016-09-28T12:07:55.419Z,11.09
2016-09-28T12:08:55.085Z,10.86
2016-09-28T12:09:55.272Z,10.91
2016-09-28T12:10:55.077Z,10.66
2016-09-28T12:11:54.721Z,11.23
2016-09-28T12:12:55.042Z,11.21
2016-09-28T12:13:55.063Z,11.48
2016-09-28T12:14:54.733Z,11.44
2016-09-28T12:15:54.725Z,11.36
2016-09-28T12:16:54.697Z,10.52
2016-09-28T12:17:54.705Z,10.02
2016-09-28T12:18:54.700Z,10.16
2016-09-28T12:19:54.696Z,10.69
2016-09-28T12:20:54.671Z,10.65
2016-09-28T12:21:54.978Z,10.8
2016-09-28T12:22:54.668Z,11.03
2016-09-28T12:23:54.672Z,10.76
2016-09-28T12:24:54.636Z,10.7
2016-09-28T12:25:55.231Z,10.63
2016-09-28T12:26:54.626Z,10.78
2016-09-28T12:27:54.608Z,10.83
2016-09-28T12:28:54.601Z,11.05
2016-09-28T12:29:55.211Z,10.63
2016-09-28T12:30:54.605Z,10.8
2016-09-28T12:31:55.208Z,10.94
2016-09-28T12:32:55.214Z,10.58
2016-09-28T12:33:54.875Z,10.98
2016-09-28T12:34:54.536Z,10.51
2016-09-28T12:35:54.539Z,10.88
2016-09-28T12:36:55.181Z,11.12
2016-09-28T12:37:54.530Z,11.41
2016-09-28T12:38:54.867Z,11.31
2016-09-28T12:39:54.836Z,11.16
2016-09-28T12:40:55.114Z,10.34
2016-09-28T12:41:54.492Z,10.2
2016-09-28T12:42:54.807Z,10.49
2016-09-28T12:43:55.091Z,10.24
2016-09-28T12:44:54.782Z,10.13
2016-09-28T12:45:54.759Z,10.44
2016-09-28T12:46:54.469Z,10.65
2016-09-28T12:47:55.062Z,10.94
2016-09-28T12:48:54.442Z,11.19
2016-09-28T12:49:54.418Z,11.16
2016-09-28T12:50:54.718Z,11.23
2016-09-28T12:51:54.402Z,11.31
2016-09-28T12:52:54.699Z,11.09
2016-09-28T12:53:54.701Z,11.05
2016-09-28T12:54:54.707Z,10.68
2016-09-28T12:55:54.374Z,9.98
2016-09-28T12:56:54.670Z,10.04
2016-09-28T12:57:54.693Z,9.92
2016-09-28T12:58:54.667Z,10.13
2016-09-28T12:59:54.342Z,9.95
2016-09-28T13:00:54.670Z,10.42
2016-09-28T13:01:54.876Z,10.6
2016-09-28T13:02:54.318Z,10.49
2016-09-28T13:03:54.291Z,10.57
2016-09-28T13:04:54.284Z,10.87
2016-09-28T13:05:54.326Z,11.28
2016-09-28T13:06:54.689Z,11.85
2016-09-28T13:07:54.238Z,12.37
2016-09-28T13:08:54.261Z,11.97
2016-09-28T13:09:54.232Z,12.13
2016-09-28T13:10:54.221Z,11.6
2016-09-28T13:11:54.214Z,10.91
2016-09-28T13:12:54.194Z,10.62
2016-09-28T13:13:54.218Z,10.72
2016-09-28T13:14:54.217Z,11.19
2016-09-28T13:15:54.189Z,11.17
2016-09-28T13:16:54.195Z,11.08
2016-09-28T13:17:54.153Z,10.14
2016-09-28T13:18:54.164Z,10.02
2016-09-28T13:19:54.149Z,10.44